Time;durP1;ratioP1;P1;durP2;ratioP2;P2;SDS_P1;SDS_P2;PMS_P1;PMS_P2;Temp;Humidity;BMP_temperature;BMP_pressure;BME280_temperature;BME280_humidity;BME280_pressure;Samples;Min_cycle;Max_cycle;Signal;HPM_P1;HPM_P2
2022/12/24 00:00:57;;;;;;;17.27;11.87;;;;;;;;;;5019717;28;20473;-82
2022/12/24 00:03:23;;;;;;;16.00;10.53;;;;;;;;;;5002293;28;20458;-82
2022/12/24 00:05:51;;;;;;;17.00;10.23;;;;;;;;;;5018785;28;20478;-81
2022/12/24 00:08:17;;;;;;;15.37;10.33;;;;;;;;;;5015743;28;20494;-82
2022/12/24 00:10:44;;;;;;;16.80;9.80;;;;;;;;;;5010391;28;20474;-81
2022/12/24 00:13:10;;;;;;;19.80;10.27;;;;;;;;;;5015361;28;20458;-82
2022/12/24 00:15:36;;;;;;;18.20;11.60;;;;;;;;;;5019100;28;20485;-81
2022/12/24 00:18:03;;;;;;;13.87;9.13;;;;;;;;;;5016955;28;20493;-81
2022/12/24 00:20:29;;;;;;;18.20;10.90;;;;;;;;;;5020782;28;20473;-82
2022/12/24 00:22:57;;;;;;;14.90;9.47;;;;;;;;;;5017410;28;20466;-81
2022/12/24 00:25:23;;;;;;;18.67;10.60;;;;;;;;;;5013455;28;20477;-82
2022/12/24 00:27:49;;;;;;;16.20;10.63;;;;;;;;;;5020457;28;20859;-81
2022/12/24 00:30:16;;;;;;;19.63;10.30;;;;;;;;;;5015283;28;20473;-82
2022/12/24 00:32:42;;;;;;;18.17;10.67;;;;;;;;;;5017864;28;20482;-81
2022/12/24 00:35:09;;;;;;;17.17;10.93;;;;;;;;;;5014796;28;20478;-81
2022/12/24 00:37:36;;;;;;;17.80;10.00;;;;;;;;;;5016807;28;20489;-81
2022/12/24 00:40:04;;;;;;;15.33;10.17;;;;;;;;;;5015028;28;20483;-81
2022/12/24 00:42:30;;;;;;;16.40;10.57;;;;;;;;;;5020822;28;20434;-81
2022/12/24 00:44:56;;;;;;;15.90;10.10;;;;;;;;;;5019731;28;21011;-81
2022/12/24 00:47:24;;;;;;;19.97;10.77;;;;;;;;;;5019706;28;20486;-82
2022/12/24 00:49:50;;;;;;;19.00;9.83;;;;;;;;;;5016750;28;20482;-82
2022/12/24 00:52:17;;;;;;;15.60;10.47;;;;;;;;;;5017794;28;20861;-81
2022/12/24 00:54:43;;;;;;;14.30;9.83;;;;;;;;;;5014802;28;20473;-81
2022/12/24 00:57:10;;;;;;;17.30;10.17;;;;;;;;;;5017237;28;20462;-82
2022/12/24 00:59:37;;;;;;;19.03;11.73;;;;;;;;;;5017155;28;20485;-82
2022/12/24 01:02:03;;;;;;;12.30;8.57;;;;;;;;;;5022101;28;20974;-82
2022/12/24 01:07:13;;;;;;;15.40;9.63;;;;;;;;;;5015939;28;20493;-82
2022/12/24 01:09:40;;;;;;;14.80;9.70;;;;;;;;;;5015976;28;20474;-81
2022/12/24 01:12:09;;;;;;;13.40;9.20;;;;;;;;;;5014764;28;20483;-81
2022/12/24 01:14:38;;;;;;;13.07;8.03;;;;;;;;;;5017550;28;20485;-81
2022/12/24 01:17:04;;;;;;;14.33;8.90;;;;;;;;;;5022201;28;20454;-82
2022/12/24 01:19:31;;;;;;;16.07;9.50;;;;;;;;;;5016866;28;20848;-82
2022/12/24 01:21:58;;;;;;;13.87;9.03;;;;;;;;;;5019652;28;20457;-82
2022/12/24 01:24:24;;;;;;;15.10;8.77;;;;;;;;;;5022376;28;20938;-81
2022/12/24 01:26:51;;;;;;;15.77;10.00;;;;;;;;;;5020994;28;20466;-82
2022/12/24 01:29:18;;;;;;;17.20;9.30;;;;;;;;;;5019048;28;20474;-82
2022/12/24 01:31:46;;;;;;;17.33;10.23;;;;;;;;;;5019409;28;20844;-81
2022/12/24 01:34:14;;;;;;;15.20;8.57;;;;;;;;;;4999362;28;20541;-81
2022/12/24 01:36:40;;;;;;;16.67;8.60;;;;;;;;;;5022013;28;20944;-81
2022/12/24 01:39:06;;;;;;;16.93;10.87;;;;;;;;;;5020447;28;20471;-83
2022/12/24 01:44:18;;;;;;;14.87;8.90;;;;;;;;;;5024084;28;20488;-82
2022/12/24 01:46:46;;;;;;;14.17;8.93;;;;;;;;;;5015290;28;20458;-81
2022/12/24 01:49:14;;;;;;;15.10;9.73;;;;;;;;;;5019793;28;20504;-81
2022/12/24 01:51:42;;;;;;;13.03;7.20;;;;;;;;;;5019142;28;20482;-81
2022/12/24 01:54:10;;;;;;;14.97;8.30;;;;;;;;;;5018200;28;20458;-82
2022/12/24 01:56:37;;;;;;;12.93;7.33;;;;;;;;;;5017128;28;20463;-82
2022/12/24 01:59:06;;;;;;;14.20;8.53;;;;;;;;;;5018774;28;20478;-81
2022/12/24 02:01:33;;;;;;;14.23;8.73;;;;;;;;;;5013440;28;20955;-82
2022/12/24 02:04:01;;;;;;;10.63;8.10;;;;;;;;;;5018257;28;20457;-82
2022/12/24 02:06:27;;;;;;;20.63;7.63;;;;;;;;;;5019466;28;20465;-82
2022/12/24 02:08:55;;;;;;;12.80;7.00;;;;;;;;;;5023184;28;20472;-82
2022/12/24 02:11:22;;;;;;;12.60;7.27;;;;;;;;;;5022648;28;21013;-82
2022/12/24 02:13:51;;;;;;;10.10;7.47;;;;;;;;;;5022971;28;20470;-82
2022/12/24 02:16:22;;;;;;;14.60;7.37;;;;;;;;;;5019443;28;20471;-82
2022/12/24 02:18:56;;;;;;;13.67;6.83;;;;;;;;;;5017036;28;20481;-81
2022/12/24 02:21:46;;;;;;;16.00;8.27;;;;;;;;;;5019849;28;20454;-81
2022/12/24 02:24:32;;;;;;;14.10;7.47;;;;;;;;;;5022639;28;20470;-82
2022/12/24 02:27:06;;;;;;;11.33;6.87;;;;;;;;;;5019119;28;20458;-82
2022/12/24 02:29:43;;;;;;;12.07;8.17;;;;;;;;;;5016392;28;20476;-82
2022/12/24 02:32:11;;;;;;;9.37;6.23;;;;;;;;;;5021464;28;20477;-82
2022/12/24 02:34:38;;;;;;;12.43;8.50;;;;;;;;;;5022359;28;20501;-81
2022/12/24 02:37:08;;;;;;;10.23;6.73;;;;;;;;;;5020398;28;20445;-81
2022/12/24 02:39:39;;;;;;;11.10;7.23;;;;;;;;;;5015843;28;20473;-82
2022/12/24 02:42:06;;;;;;;9.83;6.93;;;;;;;;;;5019158;28;20453;-81
2022/12/24 02:44:35;;;;;;;10.97;6.73;;;;;;;;;;5016759;28;20497;-82
2022/12/24 02:47:03;;;;;;;12.10;7.67;;;;;;;;;;5019042;28;20445;-82
2022/12/24 02:49:30;;;;;;;11.80;7.30;;;;;;;;;;5020201;28;20476;-81
2022/12/24 02:51:56;;;;;;;18.70;7.57;;;;;;;;;;5021648;28;20485;-82
2022/12/24 02:54:22;;;;;;;9.00;6.60;;;;;;;;;;5016149;28;20475;-82
2022/12/24 02:57:05;;;;;;;15.10;8.57;;;;;;;;;;5018627;28;20458;-81
2022/12/24 02:59:36;;;;;;;14.27;7.80;;;;;;;;;;5023423;28;20592;-82
2022/12/24 03:02:18;;;;;;;12.77;7.70;;;;;;;;;;5017489;28;20458;-82
2022/12/24 03:04:49;;;;;;;12.83;7.90;;;;;;;;;;5018936;28;20456;-82
2022/12/24 03:07:19;;;;;;;10.50;7.10;;;;;;;;;;5022163;28;20454;-82
2022/12/24 03:10:11;;;;;;;9.90;6.57;;;;;;;;;;5017109;28;20475;-81
2022/12/24 03:12:40;;;;;;;10.33;6.47;;;;;;;;;;5018233;28;20481;-82
2022/12/24 03:15:07;;;;;;;10.77;7.07;;;;;;;;;;5014784;28;20477;-82
2022/12/24 03:17:34;;;;;;;10.80;6.70;;;;;;;;;;5017087;28;20496;-81
2022/12/24 03:20:02;;;;;;;12.20;7.90;;;;;;;;;;4997243;28;20487;-82
2022/12/24 03:22:30;;;;;;;13.10;7.97;;;;;;;;;;5018144;28;20462;-81
2022/12/24 03:24:56;;;;;;;12.77;7.60;;;;;;;;;;5016797;28;20492;-82
2022/12/24 03:27:25;;;;;;;8.50;7.03;;;;;;;;;;5011501;28;20486;-82
2022/12/24 03:29:51;;;;;;;8.27;6.07;;;;;;;;;;5016845;28;20477;-82
2022/12/24 03:32:22;;;;;;;10.67;7.00;;;;;;;;;;5018675;28;20489;-81
2022/12/24 03:34:49;;;;;;;15.50;7.57;;;;;;;;;;5018171;28;20481;-81
2022/12/24 03:37:16;;;;;;;9.77;7.27;;;;;;;;;;5017742;28;21015;-82
2022/12/24 03:39:42;;;;;;;12.43;7.77;;;;;;;;;;5015175;28;20484;-81
2022/12/24 03:42:09;;;;;;;12.20;7.33;;;;;;;;;;5017063;28;20466;-81
2022/12/24 03:44:35;;;;;;;11.37;8.13;;;;;;;;;;5014463;28;21156;-81
2022/12/24 03:47:01;;;;;;;10.80;8.10;;;;;;;;;;5015826;28;20463;-82
2022/12/24 03:49:28;;;;;;;9.30;7.00;;;;;;;;;;5017616;28;20480;-81
2022/12/24 03:51:54;;;;;;;11.10;7.60;;;;;;;;;;4995380;28;20505;-82
2022/12/24 03:54:22;;;;;;;11.87;8.47;;;;;;;;;;5013479;28;20486;-81
2022/12/24 03:56:48;;;;;;;15.40;9.50;;;;;;;;;;5015569;28;20462;-82
2022/12/24 03:59:15;;;;;;;12.63;8.13;;;;;;;;;;5017391;28;20501;-81
2022/12/24 04:01:41;;;;;;;10.73;8.23;;;;;;;;;;5009940;28;20459;-81
2022/12/24 04:04:07;;;;;;;12.30;7.70;;;;;;;;;;5014207;28;20477;-82
2022/12/24 04:06:34;;;;;;;12.40;9.00;;;;;;;;;;5018330;28;20442;-82
2022/12/24 04:09:03;;;;;;;12.47;8.33;;;;;;;;;;5013561;28;20477;-81
2022/12/24 04:11:31;;;;;;;13.70;8.67;;;;;;;;;;4999196;28;20847;-81
2022/12/24 04:13:58;;;;;;;16.90;9.30;;;;;;;;;;5018012;28;20493;-81
2022/12/24 04:16:24;;;;;;;12.60;8.00;;;;;;;;;;5015858;28;20453;-81
2022/12/24 04:18:50;;;;;;;18.00;10.60;;;;;;;;;;5016804;28;20484;-81
2022/12/24 04:21:17;;;;;;;15.60;8.23;;;;;;;;;;5013314;28;20477;-81
2022/12/24 04:23:44;;;;;;;15.80;7.90;;;;;;;;;;5014719;28;20442;-82
2022/12/24 04:26:12;;;;;;;14.30;9.17;;;;;;;;;;5015577;28;20461;-81
2022/12/24 04:28:40;;;;;;;15.83;9.90;;;;;;;;;;5010296;28;20490;-82
2022/12/24 04:31:08;;;;;;;14.63;9.70;;;;;;;;;;5017734;28;20512;-82
2022/12/24 04:33:34;;;;;;;13.90;8.67;;;;;;;;;;5017958;28;20488;-81
2022/12/24 04:36:01;;;;;;;16.50;9.63;;;;;;;;;;5019249;28;20837;-81
2022/12/24 04:38:28;;;;;;;13.73;10.00;;;;;;;;;;5015757;28;20496;-81
2022/12/24 04:40:58;;;;;;;18.70;10.60;;;;;;;;;;5014190;28;20481;-81
2022/12/24 04:43:24;;;;;;;18.10;10.70;;;;;;;;;;5016144;28;20883;-81
2022/12/24 04:45:52;;;;;;;15.23;8.97;;;;;;;;;;5011645;28;20470;-82
2022/12/24 04:48:19;;;;;;;16.73;10.47;;;;;;;;;;5011761;28;20485;-82
2022/12/24 04:50:46;;;;;;;18.30;10.30;;;;;;;;;;5012502;28;20477;-81
2022/12/24 04:53:14;;;;;;;17.47;10.70;;;;;;;;;;5013989;28;20490;-82
2022/12/24 04:55:43;;;;;;;19.83;10.17;;;;;;;;;;5013746;28;20479;-82
2022/12/24 04:58:10;;;;;;;16.10;10.07;;;;;;;;;;4999902;28;20877;-82
2022/12/24 05:00:36;;;;;;;17.13;10.53;;;;;;;;;;5011670;28;21015;-82
2022/12/24 05:03:04;;;;;;;16.73;10.50;;;;;;;;;;5016221;28;20458;-81
2022/12/24 05:05:30;;;;;;;24.20;12.57;;;;;;;;;;5019004;28;20473;-82
2022/12/24 05:07:56;;;;;;;19.17;11.43;;;;;;;;;;5017955;28;20478;-82
2022/12/24 05:10:23;;;;;;;17.40;10.30;;;;;;;;;;5016322;28;20470;-81
2022/12/24 05:12:49;;;;;;;17.90;10.27;;;;;;;;;;5017340;28;20489;-81
2022/12/24 05:15:17;;;;;;;17.43;9.77;;;;;;;;;;5010747;28;21009;-81
2022/12/24 05:17:43;;;;;;;22.63;11.80;;;;;;;;;;5019423;28;20481;-81
2022/12/24 05:20:11;;;;;;;19.20;11.63;;;;;;;;;;5018574;28;20477;-82
2022/12/24 05:28:05;;;;;;;23.90;12.43;;;;;;;;;;5016161;28;21078;-81
2022/12/24 05:30:31;;;;;;;23.57;13.70;;;;;;;;;;5014337;28;21018;-81
2022/12/24 05:32:58;;;;;;;22.83;13.03;;;;;;;;;;5016138;28;20490;-81
2022/12/24 05:35:25;;;;;;;22.00;13.83;;;;;;;;;;5013753;28;20482;-81
2022/12/24 05:37:52;;;;;;;27.03;16.13;;;;;;;;;;5017079;28;20473;-82
2022/12/24 05:40:18;;;;;;;34.70;16.97;;;;;;;;;;5012855;28;20478;-81
2022/12/24 05:42:44;;;;;;;31.40;15.50;;;;;;;;;;5012115;28;20445;-81
2022/12/24 05:45:11;;;;;;;35.50;17.03;;;;;;;;;;5009938;28;20482;-81
2022/12/24 05:47:37;;;;;;;28.80;17.80;;;;;;;;;;5012569;28;20504;-81
2022/12/24 05:50:04;;;;;;;29.70;16.10;;;;;;;;;;5012285;28;20469;-82
2022/12/24 05:52:31;;;;;;;30.97;17.63;;;;;;;;;;5016369;28;20514;-81
2022/12/24 05:54:58;;;;;;;32.43;17.83;;;;;;;;;;5016288;28;20480;-82
2022/12/24 05:57:24;;;;;;;35.90;19.17;;;;;;;;;;5018940;28;20481;-81
2022/12/24 05:59:50;;;;;;;34.07;17.90;;;;;;;;;;5013505;28;20481;-81
2022/12/24 06:02:17;;;;;;;34.00;19.40;;;;;;;;;;5015782;28;20447;-81
2022/12/24 06:04:43;;;;;;;36.10;20.23;;;;;;;;;;5013566;28;20486;-82
2022/12/24 06:07:09;;;;;;;42.70;19.63;;;;;;;;;;5015860;28;20493;-81
2022/12/24 06:09:37;;;;;;;40.30;20.47;;;;;;;;;;5013300;28;20477;-82
2022/12/24 06:12:04;;;;;;;42.73;20.07;;;;;;;;;;5018001;28;20454;-81
2022/12/24 06:14:30;;;;;;;39.77;19.93;;;;;;;;;;5017828;28;20480;-81
2022/12/24 06:16:57;;;;;;;38.07;19.90;;;;;;;;;;5022431;28;20461;-81
2022/12/24 06:19:23;;;;;;;43.77;22.43;;;;;;;;;;5005476;28;20474;-81
2022/12/24 06:21:49;;;;;;;41.07;20.77;;;;;;;;;;5016721;28;20462;-81
2022/12/24 06:24:16;;;;;;;42.73;22.57;;;;;;;;;;5019668;28;20465;-82
2022/12/24 06:26:43;;;;;;;40.27;21.60;;;;;;;;;;5015078;28;20476;-82
2022/12/24 06:29:10;;;;;;;43.13;21.63;;;;;;;;;;5013222;28;20477;-81
2022/12/24 06:31:37;;;;;;;37.57;19.90;;;;;;;;;;5022169;28;20998;-82
2022/12/24 06:34:03;;;;;;;36.67;19.83;;;;;;;;;;5019172;28;20473;-82
2022/12/24 06:36:29;;;;;;;41.40;20.20;;;;;;;;;;5014428;28;20465;-81
2022/12/24 06:38:57;;;;;;;44.07;21.30;;;;;;;;;;5017472;28;20487;-82
2022/12/24 06:41:23;;;;;;;35.80;20.40;;;;;;;;;;5018301;28;20466;-82
2022/12/24 06:43:52;;;;;;;31.73;19.93;;;;;;;;;;5016730;28;20473;-81
2022/12/24 06:46:19;;;;;;;35.20;18.43;;;;;;;;;;5022026;28;20466;-81
2022/12/24 06:48:46;;;;;;;39.37;18.47;;;;;;;;;;5013971;28;20477;-81
2022/12/24 06:51:13;;;;;;;34.57;17.53;;;;;;;;;;5019911;28;20460;-81
2022/12/24 06:53:40;;;;;;;32.27;16.40;;;;;;;;;;5020440;28;20500;-81
2022/12/24 06:56:09;;;;;;;34.47;17.20;;;;;;;;;;5021388;28;20519;-81
2022/12/24 06:58:36;;;;;;;35.27;16.60;;;;;;;;;;5020167;28;20479;-81
2022/12/24 07:01:09;;;;;;;33.63;16.90;;;;;;;;;;5014401;28;20473;-81
2022/12/24 07:03:35;;;;;;;29.73;16.30;;;;;;;;;;5018229;28;20448;-81
2022/12/24 07:06:03;;;;;;;31.57;14.40;;;;;;;;;;5019730;28;20479;-82
2022/12/24 07:08:32;;;;;;;26.17;12.30;;;;;;;;;;5014971;28;20509;-81
2022/12/24 07:10:58;;;;;;;26.67;13.27;;;;;;;;;;5017731;28;21006;-81
2022/12/24 07:13:25;;;;;;;29.23;12.60;;;;;;;;;;5017603;28;20484;-81
2022/12/24 07:15:56;;;;;;;26.70;12.50;;;;;;;;;;5019291;28;20474;-82
2022/12/24 07:18:24;;;;;;;26.80;10.50;;;;;;;;;;5018278;28;20492;-81
2022/12/24 07:20:50;;;;;;;26.07;11.37;;;;;;;;;;5019977;28;20489;-81
2022/12/24 07:23:17;;;;;;;35.80;10.60;;;;;;;;;;5020719;28;20457;-81
2022/12/24 07:25:43;;;;;;;28.63;9.53;;;;;;;;;;5018888;28;20474;-81
2022/12/24 07:28:09;;;;;;;25.60;9.47;;;;;;;;;;5014735;28;20489;-82
2022/12/24 07:30:36;;;;;;;29.83;9.70;;;;;;;;;;5013690;28;21002;-81
2022/12/24 07:33:03;;;;;;;31.40;9.47;;;;;;;;;;5017755;28;20484;-81
2022/12/24 07:35:30;;;;;;;24.67;8.70;;;;;;;;;;5017106;28;20537;-81
2022/12/24 07:37:57;;;;;;;30.80;8.90;;;;;;;;;;5019447;28;20478;-81
2022/12/24 07:40:23;;;;;;;40.83;9.70;;;;;;;;;;5016587;28;20550;-81
2022/12/24 07:42:50;;;;;;;32.10;9.57;;;;;;;;;;4989194;28;20463;-79
2022/12/24 07:45:17;;;;;;;31.97;8.63;;;;;;;;;;5013526;28;20478;-82
2022/12/24 07:47:44;;;;;;;34.13;7.73;;;;;;;;;;5016825;28;20477;-81
2022/12/24 07:50:10;;;;;;;25.53;7.27;;;;;;;;;;5017993;28;20478;-81
2022/12/24 07:52:38;;;;;;;44.27;7.17;;;;;;;;;;5018086;28;21058;-81
2022/12/24 07:55:04;;;;;;;34.87;7.70;;;;;;;;;;5017058;28;20488;-81
2022/12/24 07:57:31;;;;;;;32.53;7.97;;;;;;;;;;5011870;28;20504;-81
2022/12/24 07:59:57;;;;;;;34.77;8.77;;;;;;;;;;5013194;28;21045;-81
2022/12/24 08:02:25;;;;;;;50.07;9.53;;;;;;;;;;5020254;28;20823;-81
2022/12/24 08:04:52;;;;;;;31.97;7.77;;;;;;;;;;5013319;28;20552;-81
2022/12/24 08:07:18;;;;;;;34.37;7.93;;;;;;;;;;5015811;28;20457;-80
2022/12/24 08:09:46;;;;;;;30.30;8.30;;;;;;;;;;5016456;28;20481;-81
2022/12/24 08:12:12;;;;;;;35.10;7.20;;;;;;;;;;5017688;28;20471;-81
2022/12/24 08:14:38;;;;;;;46.23;8.30;;;;;;;;;;5018049;28;20488;-81
2022/12/24 08:17:05;;;;;;;31.27;8.00;;;;;;;;;;5014906;28;20461;-81
2022/12/24 08:19:32;;;;;;;42.40;7.40;;;;;;;;;;5018879;28;20482;-81
2022/12/24 08:21:59;;;;;;;30.57;7.20;;;;;;;;;;5014435;28;20457;-81
2022/12/24 08:24:25;;;;;;;37.43;9.80;;;;;;;;;;4993840;28;20538;-81
2022/12/24 08:26:53;;;;;;;22.90;6.97;;;;;;;;;;5014797;28;20460;-81
2022/12/24 08:29:19;;;;;;;18.20;7.53;;;;;;;;;;5011951;28;20489;-83
2022/12/24 08:31:45;;;;;;;48.13;8.90;;;;;;;;;;5016510;28;20459;-81
2022/12/24 08:34:12;;;;;;;35.33;8.07;;;;;;;;;;5016320;28;20852;-81
2022/12/24 08:36:39;;;;;;;28.03;8.00;;;;;;;;;;5014851;28;20469;-81
2022/12/24 08:39:07;;;;;;;45.73;8.07;;;;;;;;;;5014871;28;20482;-80
2022/12/24 08:41:34;;;;;;;37.30;8.90;;;;;;;;;;5017115;28;20459;-81
2022/12/24 08:44:02;;;;;;;31.67;9.37;;;;;;;;;;5012420;28;20809;-81
2022/12/24 08:46:28;;;;;;;30.57;7.73;;;;;;;;;;5014865;28;20462;-81
2022/12/24 08:48:55;;;;;;;35.83;7.53;;;;;;;;;;5017715;28;20481;-81
2022/12/24 08:51:22;;;;;;;38.03;7.80;;;;;;;;;;5013625;28;20469;-82
2022/12/24 08:53:49;;;;;;;32.03;7.53;;;;;;;;;;5013210;28;20859;-81
2022/12/24 08:56:16;;;;;;;36.20;10.10;;;;;;;;;;5015850;28;20458;-82
2022/12/24 08:58:42;;;;;;;40.00;7.73;;;;;;;;;;5015078;28;20481;-82
2022/12/24 09:01:14;;;;;;;33.00;7.57;;;;;;;;;;4997504;28;20478;-81
2022/12/24 09:03:41;;;;;;;25.17;6.70;;;;;;;;;;4994689;28;20463;-81
2022/12/24 09:06:08;;;;;;;29.10;7.73;;;;;;;;;;4977598;28;20461;-81
2022/12/24 09:08:35;;;;;;;41.37;9.33;;;;;;;;;;4994277;28;20471;-81
2022/12/24 09:11:05;;;;;;;28.73;7.90;;;;;;;;;;4999658;28;20481;-82
2022/12/24 09:13:32;;;;;;;27.13;9.10;;;;;;;;;;4996575;28;20486;-81
2022/12/24 09:15:59;;;;;;;34.13;9.30;;;;;;;;;;4994699;28;20497;-81
2022/12/24 09:18:27;;;;;;;44.03;9.63;;;;;;;;;;4993156;28;20877;-81
2022/12/24 09:20:59;;;;;;;38.30;10.17;;;;;;;;;;4995163;28;20483;-81
2022/12/24 09:23:25;;;;;;;35.60;9.30;;;;;;;;;;4998536;28;20463;-81
2022/12/24 09:25:51;;;;;;;42.97;9.30;;;;;;;;;;4999577;28;20873;-81
2022/12/24 09:28:18;;;;;;;31.50;10.17;;;;;;;;;;4993812;28;20478;-81
2022/12/24 09:30:45;;;;;;;47.13;12.20;;;;;;;;;;4995685;28;20861;-81
2022/12/24 09:33:12;;;;;;;39.00;11.10;;;;;;;;;;4997315;28;20469;-81
2022/12/24 09:35:40;;;;;;;34.47;13.17;;;;;;;;;;4991910;28;20475;-83
2022/12/24 09:38:09;;;;;;;36.57;12.07;;;;;;;;;;4994955;28;20479;-81
2022/12/24 09:40:37;;;;;;;30.87;11.63;;;;;;;;;;4975593;28;20481;-81
2022/12/24 09:43:05;;;;;;;44.43;10.30;;;;;;;;;;4993446;28;20494;-81
2022/12/24 09:45:33;;;;;;;44.30;11.80;;;;;;;;;;4996526;28;20982;-81
2022/12/24 09:48:02;;;;;;;46.43;11.57;;;;;;;;;;4997508;28;20493;-81
2022/12/24 09:50:32;;;;;;;32.30;10.03;;;;;;;;;;4997974;28;20473;-81
2022/12/24 09:53:02;;;;;;;41.83;12.37;;;;;;;;;;4997923;28;20451;-81
2022/12/24 09:55:31;;;;;;;49.80;18.77;;;;;;;;;;4997850;28;20509;-81
2022/12/24 09:57:57;;;;;;;61.67;13.90;;;;;;;;;;4998120;28;20482;-81
2022/12/24 10:00:27;;;;;;;37.83;12.43;;;;;;;;;;4998257;28;21601;-81
2022/12/24 10:02:53;;;;;;;38.00;12.13;;;;;;;;;;5001045;28;20469;-81
2022/12/24 10:05:37;;;;;;;35.63;15.10;;;;;;;;;;4996491;28;20478;-81
2022/12/24 10:08:11;;;;;;;49.13;17.90;;;;;;;;;;4997059;28;20482;-80
2022/12/24 10:10:40;;;;;;;34.97;12.13;;;;;;;;;;4998407;28;20517;-81
2022/12/24 10:13:13;;;;;;;51.67;19.67;;;;;;;;;;4998764;28;20466;-81
2022/12/24 10:15:40;;;;;;;40.53;12.93;;;;;;;;;;4997880;28;20869;-81
2022/12/24 10:18:16;;;;;;;52.20;19.57;;;;;;;;;;4994094;28;20474;-81
2022/12/24 10:20:45;;;;;;;35.23;10.80;;;;;;;;;;4998509;28;20480;-81
2022/12/24 10:23:15;;;;;;;41.07;17.30;;;;;;;;;;4993595;28;20960;-81
2022/12/24 10:25:44;;;;;;;35.20;10.93;;;;;;;;;;5005411;28;20482;-81
2022/12/24 10:28:14;;;;;;;45.30;13.50;;;;;;;;;;4996085;28;20486;-81
2022/12/24 10:30:41;;;;;;;36.80;9.70;;;;;;;;;;4995658;28;20475;-81
2022/12/24 10:33:14;;;;;;;54.07;22.20;;;;;;;;;;5000152;28;20448;-81
2022/12/24 10:35:45;;;;;;;46.30;17.30;;;;;;;;;;4997710;28;20987;-81
2022/12/24 10:38:12;;;;;;;39.40;12.83;;;;;;;;;;4999803;28;20493;-81
2022/12/24 10:40:41;;;;;;;34.10;11.43;;;;;;;;;;4994778;28;20483;-81
2022/12/24 10:43:12;;;;;;;40.00;11.87;;;;;;;;;;4973834;28;20458;-81
2022/12/24 10:45:41;;;;;;;28.23;9.80;;;;;;;;;;4989756;28;20479;-81
2022/12/24 10:48:10;;;;;;;24.87;8.80;;;;;;;;;;4997452;28;20497;-81
2022/12/24 10:50:40;;;;;;;31.77;11.47;;;;;;;;;;4995205;28;20589;-81
2022/12/24 10:53:15;;;;;;;28.23;10.00;;;;;;;;;;4998065;28;20820;-81
2022/12/24 10:55:43;;;;;;;34.03;11.20;;;;;;;;;;4998268;28;20486;-81
2022/12/24 10:58:13;;;;;;;42.43;12.93;;;;;;;;;;4993416;28;20474;-81
2022/12/24 11:00:40;;;;;;;40.63;11.87;;;;;;;;;;4992223;28;20482;-81
2022/12/24 11:03:08;;;;;;;31.30;10.03;;;;;;;;;;5000748;28;20462;-81
2022/12/24 11:05:35;;;;;;;27.97;9.93;;;;;;;;;;4995391;28;20479;-81
2022/12/24 11:08:02;;;;;;;44.10;14.03;;;;;;;;;;4999837;28;20482;-81
2022/12/24 11:10:29;;;;;;;37.97;12.33;;;;;;;;;;4999452;28;20853;-81
2022/12/24 11:12:57;;;;;;;36.53;12.60;;;;;;;;;;5003147;28;20522;-81
2022/12/24 11:15:25;;;;;;;36.30;14.50;;;;;;;;;;4998068;28;20485;-80
2022/12/24 11:17:54;;;;;;;53.20;13.40;;;;;;;;;;4996824;28;20985;-81
2022/12/24 11:20:24;;;;;;;38.20;9.70;;;;;;;;;;4995510;28;20483;-81
2022/12/24 11:22:50;;;;;;;46.27;11.13;;;;;;;;;;4994251;28;20463;-81
2022/12/24 11:25:19;;;;;;;35.17;12.80;;;;;;;;;;4992925;28;20834;-81
2022/12/24 11:27:49;;;;;;;31.50;10.30;;;;;;;;;;4997027;28;20475;-81
2022/12/24 11:30:25;;;;;;;34.27;10.90;;;;;;;;;;4995218;28;20490;-81
2022/12/24 11:33:11;;;;;;;24.70;9.40;;;;;;;;;;4999430;28;20462;-81
2022/12/24 11:35:40;;;;;;;31.17;10.70;;;;;;;;;;4997075;28;20483;-82
2022/12/24 11:38:10;;;;;;;28.50;9.20;;;;;;;;;;4996783;28;20486;-81
2022/12/24 11:40:38;;;;;;;26.97;7.93;;;;;;;;;;4997184;28;20507;-81
2022/12/24 11:43:05;;;;;;;27.70;10.50;;;;;;;;;;4995380;28;20460;-81
2022/12/24 11:45:34;;;;;;;22.60;8.73;;;;;;;;;;4996049;28;20470;-81
2022/12/24 11:48:01;;;;;;;28.73;9.27;;;;;;;;;;4993438;28;20483;-81
2022/12/24 11:50:28;;;;;;;31.50;8.60;;;;;;;;;;4995900;28;20501;-81
2022/12/24 11:52:58;;;;;;;27.03;8.60;;;;;;;;;;5000641;28;20533;-81
2022/12/24 11:55:28;;;;;;;24.97;9.73;;;;;;;;;;4991018;28;20501;-81
2022/12/24 11:57:58;;;;;;;42.80;9.23;;;;;;;;;;4992390;28;20474;-81
2022/12/24 12:00:26;;;;;;;29.57;11.80;;;;;;;;;;4996124;28;20482;-81
2022/12/24 12:02:56;;;;;;;30.53;10.00;;;;;;;;;;4994406;28;20525;-80
2022/12/24 12:05:25;;;;;;;50.73;9.10;;;;;;;;;;4995586;28;20478;-81
2022/12/24 12:07:54;;;;;;;35.27;9.50;;;;;;;;;;4995667;28;20478;-81
2022/12/24 12:10:25;;;;;;;26.83;7.63;;;;;;;;;;4992308;28;20475;-81
2022/12/24 12:12:57;;;;;;;22.60;8.50;;;;;;;;;;4996230;28;20466;-81
2022/12/24 12:15:25;;;;;;;32.10;7.97;;;;;;;;;;4995574;28;20479;-81
2022/12/24 12:17:54;;;;;;;28.63;8.53;;;;;;;;;;4992442;28;20471;-81
2022/12/24 12:20:23;;;;;;;28.97;8.27;;;;;;;;;;4993825;28;20477;-81
2022/12/24 12:22:53;;;;;;;29.47;8.20;;;;;;;;;;4992788;28;20454;-81
2022/12/24 12:25:21;;;;;;;35.70;9.50;;;;;;;;;;4994747;28;20485;-81
2022/12/24 12:27:50;;;;;;;37.77;9.07;;;;;;;;;;4993920;28;20490;-81
2022/12/24 12:30:19;;;;;;;33.67;9.00;;;;;;;;;;4992126;28;20996;-81
2022/12/24 12:32:48;;;;;;;39.67;10.40;;;;;;;;;;4996404;28;20470;-81
2022/12/24 12:35:18;;;;;;;28.07;9.50;;;;;;;;;;4995191;28;20486;-81
2022/12/24 12:37:51;;;;;;;33.80;13.00;;;;;;;;;;4996675;28;20492;-81
2022/12/24 12:40:18;;;;;;;28.77;9.80;;;;;;;;;;4994678;28;20515;-81
2022/12/24 12:42:50;;;;;;;36.80;10.33;;;;;;;;;;4992922;28;20473;-81
2022/12/24 12:45:31;;;;;;;20.17;9.33;;;;;;;;;;4991047;28;20476;-81
2022/12/24 12:48:03;;;;;;;24.37;9.60;;;;;;;;;;4990423;28;20479;-81
2022/12/24 12:50:31;;;;;;;31.60;10.33;;;;;;;;;;4991159;28;20468;-81
2022/12/24 12:53:05;;;;;;;36.70;11.10;;;;;;;;;;4995532;28;20473;-81
2022/12/24 12:55:40;;;;;;;27.23;8.57;;;;;;;;;;4993788;28;21029;-81
2022/12/24 12:58:20;;;;;;;22.50;8.47;;;;;;;;;;4993053;28;20530;-81
2022/12/24 13:00:49;;;;;;;29.03;11.90;;;;;;;;;;4989052;28;20470;-81
2022/12/24 13:03:29;;;;;;;22.67;9.63;;;;;;;;;;4994284;28;20462;-81
2022/12/24 13:06:17;;;;;;;28.97;11.17;;;;;;;;;;4994028;28;20475;-81
2022/12/24 13:08:55;;;;;;;30.87;10.30;;;;;;;;;;4989381;28;20487;-81
2022/12/24 13:11:31;;;;;;;26.30;9.33;;;;;;;;;;4990237;28;20466;-81
2022/12/24 13:14:17;;;;;;;22.03;10.23;;;;;;;;;;4990979;28;20836;-81
2022/12/24 13:17:00;;;;;;;35.83;11.20;;;;;;;;;;4990986;28;20502;-81
2022/12/24 13:19:33;;;;;;;33.80;13.27;;;;;;;;;;4994659;28;20474;-82
2022/12/24 13:22:01;;;;;;;33.13;11.57;;;;;;;;;;5003263;28;20470;-81
2022/12/24 13:24:29;;;;;;;25.00;12.17;;;;;;;;;;5001834;28;20550;-81
2022/12/24 13:27:03;;;;;;;30.67;12.03;;;;;;;;;;4998739;28;20481;-81
2022/12/24 13:29:31;;;;;;;17.83;8.00;;;;;;;;;;4994982;28;20474;-81
2022/12/24 13:32:32;;;;;;;18.70;8.70;;;;;;;;;;4996541;28;21022;-81
2022/12/24 13:35:02;;;;;;;23.37;9.03;;;;;;;;;;4998332;28;20483;-81
2022/12/24 13:37:32;;;;;;;25.63;9.20;;;;;;;;;;4998706;28;20546;-81
2022/12/24 13:40:14;;;;;;;27.17;12.50;;;;;;;;;;4989782;28;20471;-81
2022/12/24 13:42:48;;;;;;;26.00;9.30;;;;;;;;;;4996571;28;20467;-81
2022/12/24 13:45:33;;;;;;;18.17;10.00;;;;;;;;;;4997504;28;20482;-81
2022/12/24 13:48:01;;;;;;;22.50;7.30;;;;;;;;;;4996425;28;20491;-81
2022/12/24 13:50:29;;;;;;;19.77;6.90;;;;;;;;;;4996637;28;20478;-81
2022/12/24 13:52:56;;;;;;;29.40;8.40;;;;;;;;;;4995290;28;20474;-82
2022/12/24 13:55:25;;;;;;;25.83;8.10;;;;;;;;;;4998966;28;20483;-81
2022/12/24 13:57:54;;;;;;;16.43;7.53;;;;;;;;;;4995083;28;21014;-81
2022/12/24 14:00:33;;;;;;;23.40;7.63;;;;;;;;;;5001768;28;20482;-81
2022/12/24 14:03:01;;;;;;;18.60;6.43;;;;;;;;;;4997534;28;20467;-81
2022/12/24 14:05:32;;;;;;;28.20;6.27;;;;;;;;;;4996198;28;20474;-81
2022/12/24 14:08:00;;;;;;;15.77;6.87;;;;;;;;;;4998021;28;20481;-81
2022/12/24 14:10:29;;;;;;;23.70;7.03;;;;;;;;;;5000023;28;20474;-81
2022/12/24 14:12:56;;;;;;;20.33;6.00;;;;;;;;;;4997695;28;20458;-81
2022/12/24 14:15:41;;;;;;;16.77;6.73;;;;;;;;;;4998041;28;21007;-81
2022/12/24 14:18:07;;;;;;;15.07;7.43;;;;;;;;;;4997261;28;20478;-81
2022/12/24 14:20:34;;;;;;;14.70;6.50;;;;;;;;;;5002213;28;20479;-81
2022/12/24 14:23:01;;;;;;;26.83;7.03;;;;;;;;;;5002885;28;20458;-81
2022/12/24 14:25:31;;;;;;;17.70;7.03;;;;;;;;;;5002950;28;21023;-81
2022/12/24 14:27:59;;;;;;;15.70;4.90;;;;;;;;;;5002444;28;20482;-81
2022/12/24 14:30:27;;;;;;;26.50;6.83;;;;;;;;;;5004437;28;20470;-81
2022/12/24 14:32:53;;;;;;;12.70;5.80;;;;;;;;;;5000339;28;20486;-82
2022/12/24 14:35:21;;;;;;;19.17;5.97;;;;;;;;;;5005644;28;20874;-81
2022/12/24 14:37:48;;;;;;;26.30;8.10;;;;;;;;;;5005664;28;20853;-81
2022/12/24 14:40:17;;;;;;;20.93;7.77;;;;;;;;;;5008302;28;20478;-82
2022/12/24 14:42:49;;;;;;;20.67;7.33;;;;;;;;;;5006232;28;20469;-82